Time;durP1;ratioP1;P1;durP2;ratioP2;P2;SDS_P1;SDS_P2;PMS_P1;PMS_P2;Temp;Humidity;BMP_temperature;BMP_pressure;BME280_temperature;BME280_humidity;BME280_pressure;Samples;Min_cycle;Max_cycle;Signal;HPM_P1;HPM_P2
2022/09/14 00:00:46;;;;;;;;;7.50;7.25;;;;;23.51;67.42;100190.56;5078019;27;45445;-59
2022/09/14 00:03:11;;;;;;;;;8.00;8.00;;;;;23.51;67.54;100186.00;5093818;27;45374;-57
2022/09/14 00:05:37;;;;;;;;;7.00;6.50;;;;;23.51;67.14;100191.41;5076495;28;46096;-58
2022/09/14 00:08:03;;;;;;;;;7.00;5.25;;;;;23.51;67.31;100188.72;5077787;27;45262;-55
2022/09/14 00:10:28;;;;;;;;;7.60;6.60;;;;;23.48;67.22;100185.66;5077134;27;45416;-59
2022/09/14 00:12:54;;;;;;;;;7.50;6.25;;;;;23.47;66.83;100181.28;5078008;27;45514;-59
2022/09/14 00:15:19;;;;;;;;;8.25;7.00;;;;;23.44;66.94;100176.34;5077814;27;45361;-57
2022/09/14 00:17:44;;;;;;;;;8.25;7.00;;;;;23.41;67.02;100164.09;5077899;27;45301;-50
2022/09/14 00:20:10;;;;;;;;;9.25;8.00;;;;;23.31;67.27;100153.88;5077864;27;45231;-49
2022/09/14 00:22:35;;;;;;;;;7.00;7.00;;;;;23.38;67.21;100156.41;5077869;27;45176;-54
2022/09/14 00:25:01;;;;;;;;;10.00;8.25;;;;;23.36;67.12;100153.16;5077314;27;45953;-51
2022/09/14 00:27:26;;;;;;;;;9.25;7.25;;;;;23.36;67.49;100150.44;5077687;27;45300;-53
2022/09/14 00:29:51;;;;;;;;;8.00;7.00;;;;;23.35;67.41;100155.03;5076299;27;45213;-57
2022/09/14 00:32:17;;;;;;;;;7.50;4.75;;;;;23.34;67.67;100147.97;5077778;27;45371;-56
2022/09/14 00:34:43;;;;;;;;;6.50;5.50;;;;;23.32;67.47;100136.53;5075925;28;46139;-50
2022/09/14 00:37:10;;;;;;;;;6.00;5.20;;;;;23.30;67.83;100135.97;5077255;27;45365;-52
2022/09/14 00:39:35;;;;;;;;;5.20;4.80;;;;;23.30;67.81;100129.69;5077328;27;45448;-56
2022/09/14 00:42:00;;;;;;;;;8.00;6.25;;;;;23.28;67.57;100129.13;5076993;27;45353;-55
2022/09/14 00:44:26;;;;;;;;;9.50;7.00;;;;;23.27;68.30;100124.78;5077361;27;45950;-49
2022/09/14 00:46:54;;;;;;;;;6.25;6.25;;;;;23.25;67.73;100121.47;5077089;27;45456;-50
2022/09/14 00:49:25;;;;;;;;;6.00;6.00;;;;;23.23;67.17;100116.28;5077369;27;45276;-55
2022/09/14 00:52:07;;;;;;;;;9.50;7.25;;;;;23.21;68.57;100101.31;5077271;27;45383;-48
2022/09/14 00:54:34;;;;;;;;;7.60;7.60;;;;;23.19;68.38;100106.19;5077127;27;46462;-49
2022/09/14 00:57:02;;;;;;;;;8.60;7.20;;;;;23.16;68.70;100097.44;5077033;27;45390;-53
2022/09/14 00:59:31;;;;;;;;;7.00;6.40;;;;;23.16;68.58;100093.91;5077196;27;45310;-51
2022/09/14 01:01:57;;;;;;;;;7.50;6.50;;;;;23.13;68.85;100078.97;5077567;27;45192;-57
2022/09/14 01:04:23;;;;;;;;;6.00;6.00;;;;;23.12;69.24;100081.91;5076674;27;46882;-48
2022/09/14 01:07:06;;;;;;;;;7.00;6.75;;;;;23.10;69.44;100071.31;5077037;27;45378;-49
2022/09/14 01:09:48;;;;;;;;;8.00;4.40;;;;;22.98;69.48;100054.28;5077318;27;45656;-50
2022/09/14 01:12:18;;;;;;;;;6.60;5.80;;;;;23.07;70.08;100070.97;5077198;27;45455;-56
2022/09/14 01:15:05;;;;;;;;;6.60;6.60;;;;;23.03;70.08;100069.81;5076844;27;46550;-49
2022/09/14 01:18:04;;;;;;;;;8.80;8.20;;;;;22.99;70.41;100064.06;5076861;27;45371;-52
2022/09/14 01:20:55;;;;;;;;;12.60;10.00;;;;;22.97;70.94;100055.34;5076922;27;45358;-46
2022/09/14 01:23:40;;;;;;;;;9.50;7.00;;;;;22.96;71.23;100063.72;5076903;28;45294;-52
2022/09/14 01:26:20;;;;;;;;;6.20;5.60;;;;;22.93;70.94;100046.06;5076544;27;46364;-56
2022/09/14 01:28:58;;;;;;;;;9.00;9.00;;;;;22.88;71.35;100045.91;5076574;27;45340;-56
2022/09/14 01:31:29;;;;;;;;;9.60;7.80;;;;;22.85;71.72;100044.53;5077101;27;45305;-48
2022/09/14 01:34:27;;;;;;;;;9.00;7.75;;;;;22.85;71.77;100052.66;5077027;27;45365;-50
2022/09/14 01:36:58;;;;;;;;;10.50;7.75;;;;;22.81;71.71;100051.50;5074143;28;46406;-54
2022/09/14 01:39:29;;;;;;;;;13.20;8.40;;;;;22.79;72.15;100061.75;5076411;27;45539;-51
2022/09/14 01:41:57;;;;;;;;;11.60;8.60;;;;;22.79;72.30;100059.06;5076715;28;45409;-52
2022/09/14 01:44:34;;;;;;;;;9.25;8.00;;;;;22.78;72.34;100062.84;5076595;27;45429;-48
2022/09/14 01:47:16;;;;;;;;;6.20;6.00;;;;;22.78;72.20;100067.44;5076350;27;45358;-49
2022/09/14 01:49:51;;;;;;;;;9.60;7.40;;;;;22.75;72.60;100057.88;5076473;27;45343;-51
2022/09/14 01:52:24;;;;;;;;;8.60;8.20;;;;;22.75;72.79;100067.91;5076926;27;45509;-48
2022/09/14 01:54:52;;;;;;;;;7.00;7.00;;;;;22.72;72.83;100084.69;5080200;27;45515;-52
2022/09/14 01:57:24;;;;;;;;;13.40;8.40;;;;;22.71;72.78;100077.59;5079739;27;46099;-50
2022/09/14 01:59:53;;;;;;;;;9.80;7.40;;;;;22.65;73.52;100057.72;5080056;27;45464;-51
2022/09/14 02:02:31;;;;;;;;;11.20;10.60;;;;;22.67;73.58;100067.25;5079872;27;45389;-52
2022/09/14 02:05:15;;;;;;;;;10.75;9.75;;;;;22.63;72.89;100063.41;5079937;27;45361;-52
2022/09/14 02:07:40;;;;;;;;;8.40;8.40;;;;;22.58;73.32;100052.44;5079466;27;45456;-49
2022/09/14 02:10:10;;;;;;;;;9.00;9.00;;;;;22.54;73.52;100062.09;5079549;27;45357;-52
2022/09/14 02:12:37;;;;;;;;;10.60;9.00;;;;;22.51;73.19;100051.78;5079744;27;45537;-50
2022/09/14 02:15:04;;;;;;;;;9.50;9.25;;;;;22.42;74.06;100050.53;5080105;27;45334;-51
2022/09/14 02:17:30;;;;;;;;;8.50;8.00;;;;;22.41;73.81;100056.97;5079360;27;46372;-52
2022/09/14 02:19:59;;;;;;;;;8.25;7.75;;;;;22.36;73.32;100043.34;5079652;27;45771;-51
2022/09/14 02:22:26;;;;;;;;;10.00;8.20;;;;;22.29;74.82;100037.22;5079677;27;45314;-52
2022/09/14 02:24:52;;;;;;;;;9.25;9.25;;;;;22.17;75.21;100029.16;5079504;27;45620;-52
2022/09/14 02:27:17;;;;;;;;;12.75;11.00;;;;;22.24;74.99;100054.22;5079542;27;46221;-54
2022/09/14 02:29:43;;;;;;;;;9.75;8.50;;;;;22.26;75.30;100064.81;5079586;27;45370;-50
2022/09/14 02:32:49;;;;;;;;;12.25;10.00;;;;;22.24;74.71;100065.03;5079586;27;45256;-52
2022/09/14 02:35:32;;;;;;;;;12.25;8.75;;;;;22.26;74.47;100065.66;5017117;28;45363;-50
2022/09/14 02:38:07;;;;;;;;;9.75;8.00;;;;;22.27;74.59;100070.00;5016582;28;46032;-49
2022/09/14 02:40:42;;;;;;;;;10.40;10.40;;;;;22.27;74.71;100070.00;5016498;28;45361;-52
2022/09/14 02:43:23;;;;;;;;;11.00;9.20;;;;;22.28;74.24;100058.09;5016692;28;45344;-52
2022/09/14 02:46:12;;;;;;;;;8.00;7.00;;;;;22.26;73.96;100059.41;5017029;28;45447;-53
2022/09/14 02:48:49;;;;;;;;;10.00;10.00;;;;;22.24;73.68;100073.16;5017331;28;46294;-53
2022/09/14 02:51:36;;;;;;;;;8.80;7.00;;;;;22.22;74.34;100064.47;5017334;28;45414;-52
2022/09/14 02:54:16;;;;;;;;;10.60;8.40;;;;;22.22;73.92;100064.47;5016583;28;45392;-52
2022/09/14 02:56:43;;;;;;;;;9.50;8.50;;;;;22.25;74.46;100063.16;5016586;28;45354;-52
2022/09/14 02:59:09;;;;;;;;;11.25;7.50;;;;;22.26;74.05;100064.81;5016193;28;47153;-52
2022/09/14 03:01:34;;;;;;;;;8.75;8.00;;;;;22.25;74.19;100053.16;5016583;28;45354;-53
2022/09/14 03:04:00;;;;;;;;;9.75;8.25;;;;;22.27;73.92;100063.75;5015926;28;45530;-52
2022/09/14 03:06:25;;;;;;;;;20.50;17.25;;;;;22.28;74.34;100070.81;5059245;28;45320;-53
2022/09/14 03:08:50;;;;;;;;;11.00;10.25;;;;;22.29;73.51;100072.44;5078694;27;45406;-53
2022/09/14 03:11:16;;;;;;;;;9.25;8.75;;;;;22.30;74.03;100068.69;5078718;27;45327;-51
2022/09/14 03:13:41;;;;;;;;;7.25;7.25;;;;;22.31;72.83;100073.88;5078906;27;45486;-50
2022/09/14 03:16:10;;;;;;;;;5.00;5.00;;;;;22.30;73.14;100071.41;5079042;27;45664;-53
2022/09/14 03:18:36;;;;;;;;;6.80;6.20;;;;;22.28;73.16;100059.97;5078600;27;46020;-52
2022/09/14 03:21:10;;;;;;;;;8.50;8.00;;;;;22.27;73.25;100056.44;5078667;27;45416;-50
2022/09/14 03:23:43;;;;;;;;;10.40;7.80;;;;;22.28;73.28;100049.13;5078584;27;45447;-54
2022/09/14 03:26:11;;;;;;;;;5.75;5.75;;;;;22.28;73.44;100054.56;5078686;27;45341;-49
2022/09/14 03:28:37;;;;;;;;;6.80;6.80;;;;;22.26;73.13;100048.56;5078650;27;46616;-51
2022/09/14 03:31:04;;;;;;;;;6.50;5.00;;;;;22.26;73.23;100054.81;5078572;27;45298;-54
2022/09/14 03:33:30;;;;;;;;;6.80;6.80;;;;;22.16;73.02;100050.00;5078739;27;45165;-53
2022/09/14 03:35:56;;;;;;;;;7.75;6.25;;;;;22.24;73.25;100056.91;5078887;27;45161;-53
2022/09/14 03:38:23;;;;;;;;;8.75;8.75;;;;;22.26;72.98;100052.09;5078216;27;46152;-53
2022/09/14 03:40:48;;;;;;;;;10.40;8.60;;;;;22.25;72.50;100049.59;5078241;27;45453;-51
2022/09/14 03:43:14;;;;;;;;;5.00;5.00;;;;;22.30;73.07;100055.16;5078446;27;45497;-54
2022/09/14 03:45:39;;;;;;;;;8.00;8.00;;;;;22.29;72.78;100059.75;5078542;27;45410;-57
2022/09/14 03:48:06;;;;;;;;;7.00;6.50;;;;;22.25;72.94;100050.47;5078025;27;46393;-54
2022/09/14 03:50:31;;;;;;;;;6.40;6.00;;;;;22.26;72.91;100051.28;5078394;27;45391;-55
2022/09/14 03:52:57;;;;;;;;;8.00;8.00;;;;;22.23;72.43;100049.03;5078650;27;45223;-52
2022/09/14 03:55:22;;;;;;;;;6.75;6.75;;;;;22.19;72.81;100053.28;5078262;27;45427;-52
2022/09/14 03:57:47;;;;;;;;;9.00;8.00;;;;;22.19;72.54;100061.41;5078029;27;45230;-51
2022/09/14 04:00:13;;;;;;;;;9.25;6.50;;;;;22.13;72.77;100060.50;5077987;27;45275;-54
2022/09/14 04:02:39;;;;;;;;;6.75;4.75;;;;;22.16;72.51;100057.28;5078126;27;45372;-55
2022/09/14 04:05:05;;;;;;;;;8.25;5.75;;;;;22.13;72.49;100058.63;5078181;27;45419;-55
2022/09/14 04:07:31;;;;;;;;;7.50;7.50;;;;;22.15;72.80;100048.34;5077876;27;45402;-54
2022/09/14 04:09:57;;;;;;;;;4.25;4.25;;;;;22.16;72.88;100039.19;5077626;27;45323;-55
2022/09/14 04:12:22;;;;;;;;;9.75;7.75;;;;;22.17;72.68;100043.53;5077940;27;45182;-55
2022/09/14 04:14:48;;;;;;;;;6.50;4.75;;;;;22.15;72.71;100042.94;5077454;27;45362;-51
2022/09/14 04:17:13;;;;;;;;;5.25;5.25;;;;;22.12;72.66;100038.00;5077409;27;45267;-54
2022/09/14 04:19:39;;;;;;;;;5.50;5.50;;;;;22.00;73.18;100020.94;5077641;27;45264;-52
2022/09/14 04:22:05;;;;;;;;;8.80;7.60;;;;;22.01;73.34;100022.56;5077721;27;45509;-54
2022/09/14 04:24:30;;;;;;;;;7.00;7.00;;;;;22.03;73.45;100033.97;5077896;27;45551;-54
2022/09/14 04:26:55;;;;;;;;;10.75;6.00;;;;;22.01;73.34;100028.00;5077431;27;47053;-54
2022/09/14 04:29:21;;;;;;;;;8.00;6.75;;;;;22.05;72.90;100031.03;5077598;27;45464;-54
2022/09/14 04:31:46;;;;;;;;;7.00;6.00;;;;;22.06;73.14;100022.66;5077466;27;45314;-55
2022/09/14 04:34:15;;;;;;;;;5.25;5.00;;;;;22.07;73.38;100018.06;5077784;27;45381;-53
2022/09/14 04:36:40;;;;;;;;;5.25;5.00;;;;;22.06;72.50;100016.44;5077448;27;46248;-54
2022/09/14 04:39:05;;;;;;;;;7.00;5.75;;;;;22.05;72.73;100022.91;5077137;27;45405;-52
2022/09/14 04:41:31;;;;;;;;;7.00;5.25;;;;;22.04;72.92;100016.69;5077451;27;45255;-54
2022/09/14 04:43:58;;;;;;;;;5.00;5.00;;;;;22.03;73.12;100020.44;5076169;27;45580;-53
2022/09/14 04:46:29;;;;;;;;;7.00;7.00;;;;;21.96;72.95;100016.25;5077048;27;46880;-52
2022/09/14 04:48:55;;;;;;;;;9.80;6.60;;;;;22.03;72.68;100036.69;5077504;27;45349;-52
2022/09/14 04:51:23;;;;;;;;;6.00;5.00;;;;;22.02;73.15;100029.63;5077470;27;45241;-51
2022/09/14 04:53:51;;;;;;;;;9.00;7.25;;;;;22.00;73.06;100022.81;5077416;27;45414;-52
2022/09/14 04:56:18;;;;;;;;;5.75;5.00;;;;;22.04;72.65;100018.56;5076951;27;46061;-55
2022/09/14 04:58:45;;;;;;;;;6.80;5.40;;;;;22.01;73.09;100009.03;5077096;27;45357;-54
2022/09/14 05:01:14;;;;;;;;;7.00;4.40;;;;;22.06;72.81;99998.28;5077217;27;45307;-53
2022/09/14 05:03:40;;;;;;;;;8.00;5.50;;;;;22.08;72.54;100011.59;5077476;27;45464;-54
2022/09/14 05:06:14;;;;;;;;;6.50;6.25;;;;;22.10;72.46;100012.19;5076664;27;46411;-54
2022/09/14 05:08:40;;;;;;;;;6.80;5.00;;;;;22.10;72.47;100012.19;5076980;27;45363;-54
2022/09/14 05:11:07;;;;;;;;;8.80;5.80;;;;;22.11;72.40;100009.22;5076990;27;45314;-54
2022/09/14 05:13:33;;;;;;;;;6.50;5.75;;;;;22.12;72.25;100010.94;5077161;27;45529;-54
2022/09/14 05:16:09;;;;;;;;;6.25;5.50;;;;;22.09;72.09;99995.13;5076873;27;45324;-54
2022/09/14 05:18:35;;;;;;;;;5.40;5.00;;;;;22.07;72.76;99993.69;5076854;27;45145;-55
2022/09/14 05:21:05;;;;;;;;;7.25;5.50;;;;;22.08;72.73;99989.91;5076901;27;45208;-53
2022/09/14 05:23:31;;;;;;;;;6.75;4.00;;;;;22.08;72.09;99985.34;5077070;27;45354;-52
2022/09/14 05:25:57;;;;;;;;;7.25;7.25;;;;;22.11;72.60;99997.56;5076530;27;45758;-53
2022/09/14 05:28:23;;;;;;;;;5.20;4.20;;;;;22.11;72.33;99994.84;5080212;27;45390;-55
2022/09/14 05:30:48;;;;;;;;;5.40;5.40;;;;;22.03;71.72;99996.06;5095442;27;45456;-52
2022/09/14 05:33:14;;;;;;;;;5.00;5.00;;;;;22.11;72.13;99998.38;5080687;27;45433;-53
2022/09/14 05:35:40;;;;;;;;;6.25;4.25;;;;;22.12;71.32;99994.66;5080234;27;46057;-50
2022/09/14 05:38:05;;;;;;;;;6.50;5.00;;;;;22.14;71.75;99989.81;5079922;27;45437;-53
2022/09/14 05:40:30;;;;;;;;;5.50;5.00;;;;;22.14;71.60;99987.09;5080170;27;45966;-53
2022/09/14 05:42:56;;;;;;;;;8.00;5.00;;;;;22.09;71.51;99969.91;5080665;27;45374;-53
2022/09/14 05:45:21;;;;;;;;;5.75;4.75;;;;;22.17;71.66;99986.63;5080104;27;46211;-52
2022/09/14 05:47:47;;;;;;;;;5.50;5.25;;;;;22.17;71.47;100002.88;5080274;27;45227;-53
2022/09/14 05:50:13;;;;;;;;;9.50;6.75;;;;;22.15;72.28;100001.47;5080283;27;45238;-53
2022/09/14 05:52:39;;;;;;;;;7.00;7.00;;;;;22.11;72.34;100003.81;5080322;27;45251;-52
2022/09/14 05:55:04;;;;;;;;;8.00;6.75;;;;;22.13;72.06;100006.31;5079729;27;46254;-54
2022/09/14 05:57:29;;;;;;;;;9.50;8.00;;;;;22.12;72.74;100007.34;5079827;27;45351;-53
2022/09/14 05:59:55;;;;;;;;;8.25;7.75;;;;;22.08;71.80;100017.00;5080222;27;45314;-53
2022/09/14 06:02:20;;;;;;;;;8.25;6.50;;;;;21.92;72.19;99999.63;5080143;27;45283;-50
2022/09/14 06:04:45;;;;;;;;;8.25;8.25;;;;;21.98;73.35;100020.34;5079587;27;46459;-47
2022/09/14 06:07:11;;;;;;;;;8.00;7.75;;;;;21.99;73.27;100029.28;5079726;27;45322;-54
2022/09/14 06:09:36;;;;;;;;;7.25;7.00;;;;;21.96;73.18;100021.66;5079622;27;45452;-52
2022/09/14 06:12:02;;;;;;;;;7.00;7.00;;;;;21.98;73.31;100008.69;5080253;27;45266;-51
2022/09/14 06:14:27;;;;;;;;;11.50;8.00;;;;;22.00;73.80;100006.56;5079585;27;45266;-49
2022/09/14 06:16:52;;;;;;;;;8.00;8.00;;;;;22.09;73.38;100005.94;5079581;27;45313;-52
2022/09/14 06:19:18;;;;;;;;;10.00;8.00;;;;;22.13;73.32;100007.16;5079553;27;45267;-51
2022/09/14 06:21:43;;;;;;;;;10.50;8.50;;;;;22.22;72.83;99998.63;5079873;27;45472;-50
2022/09/14 06:24:14;;;;;;;;;11.50;11.50;;;;;22.25;72.30;100003.56;5079674;27;46012;-52
2022/09/14 06:26:39;;;;;;;;;10.80;8.80;;;;;22.22;72.44;100001.34;5079034;27;45362;-49
2022/09/14 06:29:05;;;;;;;;;9.50;8.75;;;;;22.10;72.55;100004.88;5079560;27;45334;-53
2022/09/14 06:31:30;;;;;;;;;9.75;9.50;;;;;22.20;72.53;100034.06;5079617;27;45279;-53
2022/09/14 06:33:56;;;;;;;;;9.50;8.00;;;;;22.17;72.92;100029.16;5079261;27;45777;-55
2022/09/14 06:36:24;;;;;;;;;7.00;7.00;;;;;22.17;73.03;100019.16;5079378;27;45300;-55
2022/09/14 06:38:50;;;;;;;;;9.60;8.20;;;;;22.21;72.77;100024.09;5078301;27;45252;-55
2022/09/14 06:41:21;;;;;;;;;11.25;7.25;;;;;22.24;72.54;100029.00;5079114;27;45413;-54
2022/09/14 06:43:47;;;;;;;;;6.50;6.50;;;;;22.26;72.59;100025.00;5079083;27;46200;-54
2022/09/14 06:46:18;;;;;;;;;10.00;7.40;;;;;22.27;72.13;100013.09;5079095;27;45337;-54
2022/09/14 06:49:04;;;;;;;;;7.20;6.20;;;;;22.33;72.55;100016.72;5079049;27;45318;-54
2022/09/14 06:51:39;;;;;;;;;8.50;7.50;;;;;22.46;72.22;100018.31;5079275;27;45410;-51
2022/09/14 06:54:05;;;;;;;;;9.00;9.00;;;;;22.53;71.63;100030.66;5078956;27;47141;-52
2022/09/14 06:56:33;;;;;;;;;8.00;8.00;;;;;22.49;71.54;100025.97;5078814;27;45346;-52
2022/09/14 06:58:58;;;;;;;;;8.40;8.20;;;;;22.41;72.09;100028.00;5079017;27;45389;-52
2022/09/14 07:01:25;;;;;;;;;9.00;8.25;;;;;22.47;71.85;100036.25;5079246;28;45362;-53
2022/09/14 07:03:52;;;;;;;;;9.75;9.75;;;;;22.59;71.74;100034.31;5078747;28;46219;-51
2022/09/14 07:06:26;;;;;;;;;8.40;8.40;;;;;22.83;70.94;100038.50;5078703;27;45207;-53
2022/09/14 07:08:52;;;;;;;;;11.60;9.00;;;;;23.02;70.24;100036.44;5079082;27;45217;-53
2022/09/14 07:11:20;;;;;;;;;10.00;9.00;;;;;23.10;70.29;100025.19;5078705;27;45374;-54
2022/09/14 07:13:46;;;;;;;;;10.50;7.50;;;;;23.12;69.53;100033.06;5078812;27;45419;-51
2022/09/14 07:16:12;;;;;;;;;8.60;7.40;;;;;23.23;69.61;100028.63;5078674;27;45376;-53
2022/09/14 07:18:38;;;;;;;;;10.00;9.00;;;;;23.29;68.98;100019.50;5078773;27;45337;-53
2022/09/14 07:21:15;;;;;;;;;9.00;9.00;;;;;23.33;68.94;100020.66;5078960;27;45178;-52
2022/09/14 07:23:43;;;;;;;;;8.00;8.00;;;;;23.41;68.77;100022.94;5078360;27;45486;-53
2022/09/14 07:26:10;;;;;;;;;8.60;8.60;;;;;23.45;68.53;100031.41;5078277;27;45381;-53
2022/09/14 07:28:36;;;;;;;;;11.60;9.00;;;;;23.35;68.55;100023.94;5078582;27;45419;-53
2022/09/14 07:31:03;;;;;;;;;13.00;10.00;;;;;23.36;68.63;100033.72;5078592;27;45248;-53
2022/09/14 07:33:29;;;;;;;;;12.20;10.80;;;;;23.37;68.58;100036.19;5078236;27;46164;-52
2022/09/14 07:36:04;;;;;;;;;8.25;8.25;;;;;23.39;68.95;100036.78;5078596;27;45227;-51
2022/09/14 07:38:29;;;;;;;;;8.00;7.60;;;;;23.48;68.27;100033.63;5078426;27;45335;-52
2022/09/14 07:40:58;;;;;;;;;10.25;8.75;;;;;23.56;68.24;100036.75;5078417;27;45459;-51
2022/09/14 07:43:24;;;;;;;;;10.20;8.00;;;;;23.58;68.12;100037.31;5078244;27;47025;-51
2022/09/14 07:45:49;;;;;;;;;13.75;7.25;;;;;23.75;67.13;100050.06;5078104;27;45337;-51
2022/09/14 07:48:14;;;;;;;;;9.00;8.00;;;;;23.92;67.10;100058.16;5078326;27;45366;-54
2022/09/14 07:50:40;;;;;;;;;7.75;6.00;;;;;24.09;66.58;100050.78;5078529;27;45359;-53
2022/09/14 07:53:05;;;;;;;;;7.00;6.00;;;;;24.33;65.74;100054.06;5078183;27;45484;-53
2022/09/14 07:55:31;;;;;;;;;8.00;6.50;;;;;24.50;64.86;100063.00;5078186;27;45464;-53
2022/09/14 07:57:56;;;;;;;;;9.50;6.75;;;;;24.63;64.64;100061.78;5078148;27;45271;-53
2022/09/14 08:00:22;;;;;;;;;6.75;6.75;;;;;24.85;64.60;100050.84;5078395;27;45380;-53
2022/09/14 08:02:52;;;;;;;;;7.80;6.80;;;;;25.18;63.09;100074.28;5077172;27;46123;-52
2022/09/14 08:05:18;;;;;;;;;7.60;6.00;;;;;25.30;63.06;100085.00;5077715;27;45390;-54
2022/09/14 08:07:44;;;;;;;;;10.00;8.60;;;;;26.16;59.68;100040.31;5078062;28;45289;-53
2022/09/14 08:10:09;;;;;;;;;11.75;8.75;;;;;26.63;59.86;100075.66;5078052;27;45236;-54
2022/09/14 08:12:34;;;;;;;;;10.25;7.25;;;;;26.81;58.08;100082.56;5077593;27;45941;-54
2022/09/14 08:15:00;;;;;;;;;8.50;6.00;;;;;26.78;57.96;100094.81;5077828;27;45310;-53
2022/09/14 08:17:25;;;;;;;;;7.75;5.75;;;;;27.03;57.75;100085.84;5077796;27;45356;-53
2022/09/14 08:19:51;;;;;;;;;10.00;8.00;;;;;27.96;54.82;100095.66;5078003;27;45315;-54
2022/09/14 08:22:17;;;;;;;;;11.00;8.25;;;;;27.93;54.78;100104.41;5077468;27;46178;-53
2022/09/14 08:24:42;;;;;;;;;8.50;7.00;;;;;28.93;52.54;100097.16;5077514;27;45350;-53
2022/09/14 08:27:09;;;;;;;;;7.00;6.25;;;;;29.10;52.13;100111.28;5077630;27;45387;-53
2022/09/14 08:29:34;;;;;;;;;11.60;7.80;;;;;30.03;50.83;100103.88;5076348;27;45400;-53
2022/09/14 08:32:00;;;;;;;;;11.75;9.25;;;;;30.33;48.67;100113.69;5077651;27;45197;-53
2022/09/14 08:34:25;;;;;;;;;12.00;12.00;;;;;31.65;46.21;100102.69;5077516;27;45397;-54
2022/09/14 08:36:51;;;;;;;;;13.75;10.25;;;;;32.72;43.53;100106.06;5077633;27;45389;-53
2022/09/14 08:39:17;;;;;;;;;10.00;8.25;;;;;32.70;46.00;100102.81;5077680;27;45479;-53
2022/09/14 08:41:42;;;;;;;;;6.20;6.20;;;;;32.44;46.97;100110.78;5076975;27;46214;-54
2022/09/14 08:44:13;;;;;;;;;8.50;5.75;;;;;32.16;43.84;100100.94;5077300;27;45257;-53
2022/09/14 08:46:49;;;;;;;;;7.60;7.00;;;;;31.94;44.13;100107.13;5077376;27;45258;-53
2022/09/14 08:49:46;;;;;;;;;8.00;8.00;;;;;31.61;45.52;100111.84;5077571;27;45152;-53
2022/09/14 08:52:34;;;;;;;;;8.00;8.00;;;;;31.13;46.52;100112.88;5076995;27;46090;-54
2022/09/14 08:55:14;;;;;;;;;6.00;5.00;;;;;30.69;48.03;100122.28;5076880;28;45441;-53
2022/09/14 08:57:59;;;;;;;;;7.20;6.20;;;;;30.18;47.86;100117.47;5077141;27;45370;-53
2022/09/14 09:00:53;;;;;;;;;9.20;9.20;;;;;29.89;48.34;100120.22;5077388;27;45367;-54
2022/09/14 09:03:52;;;;;;;;;8.60;7.20;;;;;29.46;49.68;100122.78;5040794;28;45494;-53
2022/09/14 09:06:33;;;;;;;;;4.20;3.20;;;;;29.11;49.67;100115.66;5024223;28;45273;-54
2022/09/14 09:09:16;;;;;;;;;9.40;9.00;;;;;28.88;50.88;100122.63;5041171;28;45482;-53
2022/09/14 09:11:45;;;;;;;;;11.20;7.00;;;;;28.88;50.49;100130.84;5041189;28;45424;-53
2022/09/14 09:14:30;;;;;;;;;4.00;4.00;;;;;29.57;49.43;100135.31;5040976;28;45988;-51
2022/09/14 09:16:59;;;;;;;;;5.00;5.00;;;;;30.30;47.97;100120.59;5040871;28;45442;-53
2022/09/14 09:19:33;;;;;;;;;8.80;6.80;;;;;30.81;50.35;100127.38;5041304;28;45329;-52
2022/09/14 09:22:02;;;;;;;;;6.20;6.20;;;;;31.32;48.03;100123.88;5024142;28;45455;-53
2022/09/14 09:24:44;;;;;;;;;7.20;5.80;;;;;31.80;47.32;100129.09;5040919;28;46207;-52
2022/09/14 09:27:12;;;;;;;;;9.20;8.40;;;;;32.38;43.40;100123.06;5040906;28;45410;-51
2022/09/14 09:29:37;;;;;;;;;5.60;5.60;;;;;32.87;41.72;100124.19;5041133;28;45312;-53
2022/09/14 09:32:06;;;;;;;;;9.50;6.50;;;;;33.44;41.69;100116.25;5041238;28;45741;-53
2022/09/14 09:34:34;;;;;;;;;9.00;7.80;;;;;34.07;40.46;100108.78;5040687;28;46366;-53
2022/09/14 09:36:59;;;;;;;;;11.40;7.00;;;;;35.11;42.24;100119.25;5040712;28;45406;-53
2022/09/14 09:39:28;;;;;;;;;6.50;5.00;;;;;36.40;36.35;100126.34;5046162;28;45378;-53
2022/09/14 09:42:10;;;;;;;;;6.60;6.00;;;;;37.39;37.37;100113.88;5083578;27;45456;-54
2022/09/14 09:44:58;;;;;;;;;6.00;4.40;;;;;38.30;34.28;100133.22;5083290;27;46421;-52
2022/09/14 09:47:44;;;;;;;;;5.00;4.20;;;;;39.78;32.82;100129.69;5083566;27;45320;-53
2022/09/14 09:50:12;;;;;;;;;7.00;5.00;;;;;40.71;29.01;100131.94;5083106;27;45319;-53
2022/09/14 09:52:47;;;;;;;;;6.40;5.60;;;;;40.54;28.17;100133.16;5083633;27;45370;-53
2022/09/14 09:55:19;;;;;;;;;6.60;6.60;;;;;41.08;27.81;100131.53;5083307;27;47561;-52
2022/09/14 09:57:45;;;;;;;;;6.40;5.00;;;;;41.11;27.46;100122.44;5083457;27;45264;-53
2022/09/14 10:00:21;;;;;;;;;8.50;6.00;;;;;41.22;29.36;100123.47;5083329;27;45417;-53
2022/09/14 10:02:47;;;;;;;;;7.80;6.00;;;;;41.26;27.51;100121.53;5083549;27;45312;-54
2022/09/14 10:05:12;;;;;;;;;4.00;4.00;;;;;41.58;26.22;100112.97;5083053;27;45902;-53
2022/09/14 10:07:42;;;;;;;;;4.75;4.75;;;;;42.73;24.98;100096.88;5082952;27;45227;-54
2022/09/14 10:10:13;;;;;;;;;6.40;6.40;;;;;43.97;23.46;100102.19;5083333;27;45458;-53
2022/09/14 10:12:49;;;;;;;;;7.20;5.60;;;;;45.07;23.72;100092.81;5081823;27;45320;-55
2022/09/14 10:15:29;;;;;;;;;7.80;5.20;;;;;45.83;22.71;100097.34;5079045;27;47141;-53
2022/09/14 10:18:00;;;;;;;;;3.60;3.60;;;;;45.38;22.67;100093.25;5079534;27;45231;-54
2022/09/14 10:20:26;;;;;;;;;5.80;5.80;;;;;43.93;26.17;100100.53;5079745;27;45409;-53
2022/09/14 10:22:51;;;;;;;;;6.00;5.25;;;;;42.27;25.11;100093.41;5079929;27;45295;-54
2022/09/14 10:25:17;;;;;;;;;7.50;4.75;;;;;40.84;26.58;100097.16;5079053;27;46336;-53
2022/09/14 10:28:07;;;;;;;;;5.00;5.00;;;;;39.75;30.55;100087.84;5079375;27;45318;-53
2022/09/14 10:30:33;;;;;;;;;3.20;3.20;;;;;38.23;29.29;100075.50;5079068;28;45321;-54
2022/09/14 10:33:11;;;;;;;;;4.25;3.75;;;;;38.20;29.45;100082.56;5079598;27;45215;-53
2022/09/14 10:35:55;;;;;;;;;8.40;7.80;;;;;38.82;28.73;100074.16;5078811;27;46214;-53
2022/09/14 10:38:31;;;;;;;;;6.40;5.00;;;;;39.30;28.15;100069.53;5079091;27;45413;-54
2022/09/14 10:41:08;;;;;;;;;6.20;6.20;;;;;40.04;27.49;100065.06;5079270;27;45258;-54
2022/09/14 10:43:52;;;;;;;;;6.20;3.60;;;;;41.20;25.67;100060.81;5079391;27;45478;-54
2022/09/14 10:46:25;;;;;;;;;4.60;3.80;;;;;42.91;24.09;100051.50;5079110;28;46023;-55
2022/09/14 10:49:32;;;;;;;;;4.40;3.00;;;;;44.65;22.70;100043.72;5094697;27;46537;-53
2022/09/14 10:52:31;;;;;;;;;5.00;4.60;;;;;45.52;21.74;100046.38;5079154;27;45792;-55
2022/09/14 10:55:18;;;;;;;;;8.80;4.20;;;;;44.15;22.60;100040.63;5079341;27;45304;-53
2022/09/14 10:58:03;;;;;;;;;5.20;4.40;;;;;43.34;22.47;100042.38;5078604;27;47169;-54
2022/09/14 11:00:37;;;;;;;;;7.00;5.00;;;;;43.61;22.34;100036.63;5076023;27;45437;-54
2022/09/14 11:03:44;;;;;;;;;4.80;4.80;;;;;42.31;24.62;100041.13;5012223;27;45208;-54
2022/09/14 11:06:22;;;;;;;;;3.60;3.00;;;;;41.38;25.02;100040.47;4975660;28;45407;-54
2022/09/14 11:08:58;;;;;;;;;3.80;2.40;;;;;41.10;25.10;100037.91;4975783;28;46238;-52
2022/09/14 11:11:46;;;;;;;;;3.00;3.00;;;;;40.01;25.87;100026.00;4975772;28;45368;-52
2022/09/14 11:14:22;;;;;;;;;3.60;3.60;;;;;39.83;26.80;100040.31;4975722;28;45280;-53
2022/09/14 11:17:00;;;;;;;;;3.60;3.40;;;;;39.73;26.41;100040.03;4975998;28;45236;-52
2022/09/14 11:19:41;;;;;;;;;5.20;3.80;;;;;40.75;25.42;100034.41;4975238;28;46086;-53
2022/09/14 11:22:19;;;;;;;;;4.40;4.40;;;;;41.13;25.09;100028.00;4975797;28;45301;-52
2022/09/14 11:24:56;;;;;;;;;5.00;4.40;;;;;40.76;25.70;100025.69;4975464;28;45260;-53
2022/09/14 11:27:29;;;;;;;;;4.60;4.20;;;;;40.65;26.13;100019.06;4975761;28;45350;-53
2022/09/14 11:30:03;;;;;;;;;3.20;3.20;;;;;41.37;24.89;100027.63;4975532;28;46035;-54
2022/09/14 11:32:37;;;;;;;;;5.60;5.60;;;;;41.21;25.45;100032.53;4975346;28;45235;-52
2022/09/14 11:35:22;;;;;;;;;9.00;6.60;;;;;39.77;26.31;100030.59;4974428;28;45269;-52
2022/09/14 11:37:57;;;;;;;;;3.60;3.60;;;;;38.48;27.68;100037.41;4975841;28;45478;-54
2022/09/14 11:40:28;;;;;;;;;2.60;2.20;;;;;37.51;28.90;100036.25;4975124;28;47056;-53